Spirit Lake, Iowa
Current Conditions -  °F | °C
As of 4:34 AM on Friday 24 Oct 2014 (Local Time) from KMJQ Reporting Station
Clear Clear  
Wind Chill: 54°   Ceiling: Unl
Heat Index: 54°   Visibility: 10mi
Dew Point: 45°   Wind: 9mph
Humidity: 72%   Direction: 180°S
Pressure: 29.89"   Gusts: NA
Location:  43.42°N, 95.1°W
Report Text: KMJQ 240934Z AUTO 18008KT 10SM CLR 12/07 A2989 RMK AO2
Loading
Personal Weather Stations






























Interactive Weather Map
Tropical Storm Tracking
New forecast layout! Learn more

10-Day Weather Forecast

Advertisements
Track Severe Weather on mobile